الصفحة الرئيسية
METAR-TAF:

METAR-TAF

مطار :

Tôlanaro, مدغشقر

دائرة عرض: 25-02S, خط طول: 046-57E, ارتفاع: 8 متر

مراقبة الطقس الحالي

تاريخ ووقت الإصدار 21 دقيقة قبل الساعة 02:00UTC
ريح 8 عقدة من الغرب/الشمال الغربي
درجة الحرارة 19°درجة مئوية
الرطوبة 64%
ضغط 1018 hPa
الرؤية 10 كم أو أكثر
غيوم متفرقة على ارتفاع 1600 قدم
غيوم متفرقة على ارتفاع 3300 قدم

METAR: FMSD 190200Z 30008KT 9999 SCT016 SCT033 19/12 Q1018

زمن: 05:21 (02:21 UTC)

توقعات

تاريخ ووقت الإصدار 3ساعات و 21 دقيقة قبل الساعة 23:00UTC
التوقعات صالحة من19 الساعة 00 UTC إلى 19 الساعة 24 UTC
ريح 14 عقدة من الغرب/الجنوب الغربي
الرؤية 10 كم أو أكثر
غيوم متفرقة على ارتفاع 1600 قدم
غيوم متفرقة على ارتفاع 3300 قدم
أصبح
من 19 الساعة 04 UTC إلى 19 الساعة 06 UTC
ريح 14 عقدة من الجنوب
نظرية الاحتمالات 40% :
مؤقت
من 19 الساعة 09 UTC إلى 19 الساعة 24 UTC
الرؤية: 4500 متر
زخات من المطر
أصبح
من 19 الساعة 18 UTC إلى 19 الساعة 20 UTC
ريح 8 عقدة من الشرق

TAF: FMSD 182300Z 1900/1924 24014KT 9999 SCT016 SCT033 BECMG 1904/1906 18014KT PROB40 TEMPO 1909/1924 4500 SHRA BECMG 1918/1920 08008KT

أرصاد الطقس والتوقعات من أكثر من 4000 مطار (تقارير الطقس للمطار METAR والتنبؤ بالطقس بالمطارTAF).

المحطات المتاحة هي النقط الصفراء والحمراء على الخريطة.

حرك المؤشر فوق النقطة لمعرفة اسم المحطة.

ثم انقر لمعرفة أرصاد وتوقعات الطقس.

لتغيير الخارطة: اضغط على الأزرار الخضراء مع رمز الصليب الأسود للتكبير. على الزر الأخضر مع شرطة للتصغير، أو على الأسهم الخضراء للخرائط المجاورة.


METAR-TAF: